createdAt,value
2019-05-25T00:00:26.587Z,8.90
2019-05-25T00:02:57.039Z,9.93
2019-05-25T00:05:27.488Z,10.60
2019-05-25T00:07:57.782Z,9.40
2019-05-25T00:10:28.185Z,10.87
2019-05-25T00:12:58.453Z,8.07
2019-05-25T00:15:29.178Z,10.40
2019-05-25T00:17:59.629Z,11.43
2019-05-25T00:20:30.011Z,10.47
2019-05-25T00:23:00.434Z,9.40
2019-05-25T00:25:30.721Z,11.13
2019-05-25T00:28:01.240Z,8.90
2019-05-25T00:30:31.725Z,10.07
2019-05-25T00:33:02.101Z,8.53
2019-05-25T00:35:32.861Z,10.37
2019-05-25T00:38:03.104Z,11.57
2019-05-25T00:40:33.608Z,11.00
2019-05-25T00:43:03.913Z,12.30
2019-05-25T00:45:34.384Z,11.70
2019-05-25T00:48:05.272Z,13.03
2019-05-25T00:50:35.740Z,9.70
2019-05-25T00:53:06.109Z,9.80
2019-05-25T00:55:36.478Z,11.20
2019-05-25T00:58:06.918Z,9.83
2019-05-25T01:00:37.521Z,12.63
2019-05-25T01:03:07.943Z,9.80
2019-05-25T01:05:37.724Z,8.37
2019-05-25T01:08:08.058Z,10.93
2019-05-25T01:10:38.513Z,8.33
2019-05-25T01:13:09.086Z,11.13
2019-05-25T01:15:39.777Z,11.70
2019-05-25T01:18:10.192Z,10.07
2019-05-25T01:20:40.621Z,10.97
2019-05-25T01:23:10.912Z,9.17
2019-05-25T01:25:41.380Z,10.13
2019-05-25T01:28:11.768Z,10.40
2019-05-25T01:30:42.250Z,9.23
2019-05-25T01:33:12.582Z,9.00
2019-05-25T01:35:43.024Z,9.10
2019-05-25T01:38:13.363Z,13.30
2019-05-25T01:40:43.964Z,9.00
2019-05-25T01:43:14.474Z,13.00
2019-05-25T01:45:45.027Z,15.70
2019-05-25T01:48:15.512Z,12.17
2019-05-25T01:50:45.962Z,14.10
2019-05-25T01:53:16.377Z,15.10
2019-05-25T01:55:46.680Z,10.20
2019-05-25T01:58:16.981Z,12.50
2019-05-25T02:00:47.460Z,10.60
2019-05-25T02:03:17.100Z,12.07
2019-05-25T02:05:47.468Z,13.50
2019-05-25T02:08:17.842Z,9.03
2019-05-25T02:10:48.794Z,12.00
2019-05-25T02:13:19.182Z,11.70
2019-05-25T02:15:49.710Z,11.10
2019-05-25T02:18:20.244Z,12.93
2019-05-25T02:20:50.550Z,10.23
2019-05-25T02:23:21.113Z,12.20
2019-05-25T02:25:51.421Z,11.77
2019-05-25T02:28:21.730Z,10.33
2019-05-25T02:30:52.189Z,10.27
2019-05-25T02:33:22.442Z,11.20
2019-05-25T02:35:52.818Z,10.07
2019-05-25T02:38:23.277Z,12.33
2019-05-25T02:40:53.842Z,15.10
2019-05-25T02:43:24.287Z,12.03
2019-05-25T02:45:55.055Z,12.33
2019-05-25T02:48:25.411Z,11.10
2019-05-25T02:50:55.921Z,13.77
2019-05-25T02:53:26.425Z,14.27
2019-05-25T02:55:56.676Z,11.57
2019-05-25T02:58:26.951Z,11.30
2019-05-25T03:00:57.619Z,12.83
2019-05-25T03:03:28.037Z,11.37
2019-05-25T03:05:58.652Z,12.83
2019-05-25T03:08:29.238Z,11.37
2019-05-25T03:10:59.937Z,10.20
2019-05-25T03:13:31.250Z,11.43
2019-05-25T03:16:01.735Z,15.07
2019-05-25T03:18:32.201Z,12.97
2019-05-25T03:21:02.202Z,13.30
2019-05-25T03:23:32.541Z,13.53
2019-05-25T03:26:03.004Z,12.27
2019-05-25T03:28:33.361Z,15.97
2019-05-25T03:31:04.127Z,13.50
2019-05-25T03:33:34.449Z,10.63
2019-05-25T03:36:04.815Z,12.47
2019-05-25T03:38:35.230Z,11.77
2019-05-25T03:41:05.515Z,12.93
2019-05-25T03:43:35.817Z,12.70
2019-05-25T03:46:06.919Z,14.03
2019-05-25T03:48:37.355Z,12.87
2019-05-25T03:51:07.764Z,17.57
2019-05-25T03:53:38.365Z,16.23
2019-05-25T03:56:08.991Z,43.43
2019-05-25T03:58:39.460Z,42.47
2019-05-25T04:01:10.309Z,34.87
2019-05-25T04:03:40.568Z,30.17
2019-05-25T04:06:11.136Z,23.13
2019-05-25T04:08:41.571Z,23.83
2019-05-25T04:11:12.029Z,22.43
2019-05-25T04:13:42.564Z,19.37
2019-05-25T04:16:13.175Z,18.60
2019-05-25T04:18:43.437Z,19.23
2019-05-25T04:21:13.920Z,13.47
2019-05-25T04:23:44.318Z,14.20
2019-05-25T04:26:22.510Z,13.07
2019-05-25T04:28:45.052Z,11.87
2019-05-25T04:31:15.542Z,10.77
2019-05-25T04:33:46.042Z,12.80
2019-05-25T04:36:16.402Z,13.03
2019-05-25T04:38:46.863Z,13.27
2019-05-25T04:41:17.256Z,12.17
2019-05-25T04:43:47.820Z,15.97
2019-05-25T04:46:21.450Z,12.73
2019-05-25T04:48:48.613Z,15.70
2019-05-25T04:51:19.042Z,12.73
2019-05-25T04:53:49.467Z,13.97
2019-05-25T04:56:20.260Z,13.03
2019-05-25T04:58:50.568Z,13.03
2019-05-25T05:01:22.572Z,11.10
2019-05-25T05:03:51.556Z,11.80
2019-05-25T05:06:22.112Z,13.43
2019-05-25T05:08:52.743Z,13.07
2019-05-25T05:11:23.160Z,14.47
2019-05-25T05:13:53.685Z,13.53
2019-05-25T05:16:24.133Z,9.77
2019-05-25T05:18:54.486Z,10.97
2019-05-25T05:21:24.861Z,10.70
2019-05-25T05:23:55.235Z,11.13
2019-05-25T05:26:25.738Z,10.10
2019-05-25T05:28:56.249Z,10.73
2019-05-25T05:31:26.493Z,10.43
2019-05-25T05:33:56.999Z,11.60
2019-05-25T05:36:27.820Z,10.77
2019-05-25T05:38:58.654Z,10.23
2019-05-25T05:41:31.144Z,10.43
2019-05-25T05:43:59.002Z,9.60
2019-05-25T05:46:29.924Z,9.47
2019-05-25T05:48:59.875Z,8.70
2019-05-25T05:51:30.705Z,8.57
2019-05-25T05:54:01.341Z,9.77
2019-05-25T05:56:31.617Z,8.53
2019-05-25T05:59:02.149Z,8.97
2019-05-25T06:01:32.703Z,8.90
2019-05-25T06:04:03.176Z,10.17
2019-05-25T06:06:33.740Z,10.43
2019-05-25T06:09:04.748Z,11.33
2019-05-25T06:11:35.196Z,8.47
2019-05-25T06:14:05.776Z,9.07
2019-05-25T06:16:36.046Z,11.90
2019-05-25T06:19:06.732Z,8.93
2019-05-25T06:21:37.148Z,10.10
2019-05-25T06:24:06.844Z,11.67
2019-05-25T06:26:37.331Z,11.10
2019-05-25T06:29:07.698Z,13.63
2019-05-25T06:31:37.495Z,10.07
2019-05-25T06:34:07.802Z,10.73
2019-05-25T06:36:38.338Z,10.33
2019-05-25T06:39:09.284Z,10.70
2019-05-25T06:41:39.610Z,12.67
2019-05-25T06:44:09.987Z,10.73
2019-05-25T06:46:40.521Z,11.00
2019-05-25T06:49:11.120Z,11.83
2019-05-25T06:51:41.410Z,12.33
2019-05-25T06:54:11.869Z,10.87
2019-05-25T06:56:42.157Z,13.93
2019-05-25T06:59:12.597Z,11.23
2019-05-25T07:01:43.562Z,12.60
2019-05-25T07:04:13.988Z,12.20
2019-05-25T07:06:44.373Z,11.10
2019-05-25T07:09:14.786Z,10.70
2019-05-25T07:11:45.134Z,11.00
2019-05-25T07:14:15.486Z,10.30
2019-05-25T07:16:46.164Z,11.17
2019-05-25T07:19:16.953Z,9.90
2019-05-25T07:21:47.440Z,10.23
2019-05-25T07:24:17.810Z,10.03
2019-05-25T07:26:48.232Z,9.17
2019-05-25T07:29:18.537Z,10.07
2019-05-25T07:31:48.945Z,10.43
2019-05-25T07:34:18.818Z,11.20
2019-05-25T07:36:49.048Z,10.60
2019-05-25T07:39:19.680Z,11.13
2019-05-25T07:41:50.062Z,10.90
2019-05-25T07:44:20.612Z,11.47
2019-05-25T07:46:50.958Z,10.43
2019-05-25T07:49:21.581Z,13.10
2019-05-25T07:51:52.054Z,13.73
2019-05-25T07:54:22.940Z,10.90
2019-05-25T07:56:53.275Z,10.93
2019-05-25T07:59:23.652Z,11.87
2019-05-25T08:01:54.099Z,10.60
2019-05-25T08:04:24.960Z,10.50
2019-05-25T08:06:55.680Z,12.53
2019-05-25T08:09:26.210Z,11.43
2019-05-25T08:11:56.757Z,11.37
2019-05-25T08:14:27.232Z,12.23
2019-05-25T08:16:57.713Z,11.80
2019-05-25T08:19:28.128Z,12.03
2019-05-25T08:21:58.709Z,11.60
2019-05-25T08:24:29.048Z,10.87
2019-05-25T08:26:59.392Z,10.80
2019-05-25T08:29:29.821Z,11.00
2019-05-25T08:32:00.165Z,9.90
2019-05-25T08:34:30.802Z,12.00
2019-05-25T08:37:01.118Z,12.70
2019-05-25T08:39:31.640Z,10.83
2019-05-25T08:42:02.292Z,11.00
2019-05-25T08:44:32.926Z,9.93
2019-05-25T08:47:03.453Z,8.50
2019-05-25T08:49:33.912Z,10.33
2019-05-25T08:52:04.346Z,9.37
2019-05-25T08:54:34.711Z,11.83
2019-05-25T08:57:05.188Z,8.37
2019-05-25T08:59:35.780Z,8.07
2019-05-25T09:02:06.364Z,11.50
2019-05-25T09:04:36.756Z,10.77
2019-05-25T09:07:07.264Z,8.60
2019-05-25T09:09:37.602Z,10.87
2019-05-25T09:12:08.213Z,7.53
2019-05-25T09:17:32.569Z,7.13
2019-05-25T09:20:02.881Z,9.00
2019-05-25T09:22:33.239Z,13.73
2019-05-25T09:25:03.625Z,8.90
2019-05-25T09:27:33.981Z,12.43
2019-05-25T09:30:04.529Z,12.70
2019-05-25T09:32:34.998Z,8.87
2019-05-25T09:35:05.505Z,8.10
2019-05-25T09:38:09.503Z,8.13
2019-05-25T09:43:34.255Z,7.77
2019-05-25T09:46:04.651Z,7.80
2019-05-25T09:48:38.036Z,8.53
2019-05-25T09:51:05.484Z,7.77
2019-05-25T09:53:35.750Z,8.37
2019-05-25T09:56:06.096Z,8.80
2019-05-25T09:58:36.546Z,9.10
2019-05-25T10:01:07.083Z,10.10
2019-05-25T10:03:37.533Z,8.47
2019-05-25T10:06:12.149Z,8.77
2019-05-25T10:08:38.420Z,9.67
2019-05-25T10:11:08.917Z,9.20
2019-05-25T10:13:39.494Z,9.00
2019-05-25T10:16:09.867Z,9.73
2019-05-25T10:18:40.662Z,7.47
2019-05-25T10:21:10.996Z,6.80
2019-05-25T10:23:41.412Z,7.23
2019-05-25T10:26:11.844Z,10.40
2019-05-25T10:28:42.232Z,7.10
2019-05-25T10:31:12.353Z,7.03
2019-05-25T10:33:43.757Z,7.57
2019-05-25T10:36:14.794Z,7.53
2019-05-25T10:38:45.195Z,6.90
2019-05-25T10:41:15.886Z,6.47
2019-05-25T10:43:46.449Z,7.30
2019-05-25T10:46:17.141Z,10.13
2019-05-25T10:48:47.551Z,8.07
2019-05-25T10:51:18.149Z,6.07
2019-05-25T10:53:48.710Z,5.80
2019-05-25T10:56:18.385Z,6.23
2019-05-25T10:58:48.782Z,6.93
2019-05-25T11:01:19.236Z,5.57
2019-05-25T11:03:49.747Z,6.33
2019-05-25T11:06:20.200Z,6.77
2019-05-25T11:08:50.845Z,7.40
2019-05-25T11:11:21.271Z,6.50
2019-05-25T11:13:51.793Z,5.77
2019-05-25T11:16:21.608Z,7.73
2019-05-25T11:18:51.985Z,5.47
2019-05-25T11:21:22.494Z,8.10
2019-05-25T11:23:52.801Z,7.47
2019-05-25T11:26:22.891Z,6.33
2019-05-25T11:28:53.185Z,9.00
2019-05-25T11:31:23.604Z,8.60
2019-05-25T11:33:54.006Z,8.63
2019-05-25T11:36:24.630Z,7.23
2019-05-25T11:38:55.259Z,6.93
2019-05-25T11:41:25.501Z,7.57
2019-05-25T11:43:55.829Z,6.07
2019-05-25T11:46:26.193Z,23.97
2019-05-25T11:48:56.626Z,7.30
2019-05-25T11:51:26.930Z,8.53
2019-05-25T11:53:57.480Z,6.13
2019-05-25T11:56:28.354Z,7.17
2019-05-25T11:58:58.919Z,5.47
2019-05-25T12:01:29.663Z,6.60
2019-05-25T12:04:00.586Z,7.10
2019-05-25T12:06:31.102Z,5.57
2019-05-25T12:09:01.560Z,5.47
2019-05-25T12:11:32.005Z,8.23
2019-05-25T12:14:02.484Z,5.57
2019-05-25T12:16:33.267Z,5.03
2019-05-25T12:19:03.985Z,6.33
2019-05-25T12:21:34.231Z,7.50
2019-05-25T12:24:04.889Z,6.10
2019-05-25T12:26:35.489Z,7.43
2019-05-25T12:29:06.023Z,12.93
2019-05-25T12:31:36.498Z,5.70
2019-05-25T12:34:06.958Z,5.13
2019-05-25T12:36:37.502Z,5.23
2019-05-25T12:39:08.409Z,6.53
2019-05-25T12:41:38.886Z,6.90
2019-05-25T12:44:09.329Z,5.50
2019-05-25T12:46:39.625Z,5.43
2019-05-25T12:49:10.109Z,6.67
2019-05-25T12:51:40.415Z,6.27
2019-05-25T12:54:11.048Z,5.83
2019-05-25T12:56:41.402Z,7.70
2019-05-25T12:59:11.667Z,6.33
2019-05-25T13:01:41.946Z,5.40
2019-05-25T13:04:12.350Z,5.23
2019-05-25T13:06:42.857Z,6.00
2019-05-25T13:09:13.315Z,7.67
2019-05-25T13:11:43.827Z,5.13
2019-05-25T13:14:15.123Z,8.23
2019-05-25T13:16:44.858Z,6.03
2019-05-25T13:19:14.901Z,8.63
2019-05-25T13:21:45.329Z,6.07
2019-05-25T13:24:15.724Z,4.93
2019-05-25T13:26:49.923Z,5.63
2019-05-25T13:29:20.580Z,10.80
2019-05-25T13:31:50.254Z,4.90
2019-05-25T13:34:20.588Z,5.20
2019-05-25T13:36:51.001Z,6.10
2019-05-25T13:39:21.761Z,4.90
2019-05-25T13:41:51.671Z,6.90
2019-05-25T13:44:22.133Z,6.17
2019-05-25T13:46:52.693Z,4.67
2019-05-25T13:49:23.209Z,4.70
2019-05-25T13:51:53.713Z,5.00
2019-05-25T13:54:24.206Z,5.40
2019-05-25T13:56:54.526Z,6.20
2019-05-25T13:59:25.298Z,4.30
2019-05-25T14:01:55.693Z,4.13
2019-05-25T14:04:26.111Z,5.13
2019-05-25T14:06:56.508Z,5.57
2019-05-25T14:09:27.035Z,5.60
2019-05-25T14:11:57.410Z,6.30
2019-05-25T14:14:27.887Z,4.90
2019-05-25T14:16:58.135Z,5.77
2019-05-25T14:19:28.537Z,4.27
2019-05-25T14:21:58.770Z,5.30
2019-05-25T14:24:29.174Z,8.10
2019-05-25T14:26:59.662Z,5.93
2019-05-25T14:29:29.998Z,5.33
2019-05-25T14:32:00.417Z,6.50
2019-05-25T14:34:31.059Z,5.20
2019-05-25T14:37:01.598Z,4.90
2019-05-25T14:39:32.034Z,4.60
2019-05-25T14:42:02.444Z,5.63
2019-05-25T14:44:32.769Z,6.23
2019-05-25T14:47:03.074Z,6.77
2019-05-25T14:49:33.532Z,5.67
2019-05-25T14:52:03.890Z,8.53
2019-05-25T14:54:34.518Z,8.20
2019-05-25T14:57:05.109Z,8.43
2019-05-25T14:59:35.702Z,9.93
2019-05-25T15:02:06.102Z,7.60
2019-05-25T15:04:36.616Z,9.90
2019-05-25T15:07:07.157Z,7.20
2019-05-25T15:09:37.640Z,6.87
2019-05-25T15:12:08.126Z,7.77
2019-05-25T15:14:38.470Z,12.57
2019-05-25T15:17:08.330Z,5.83
2019-05-25T15:19:38.543Z,8.47
2019-05-25T15:22:09.180Z,7.47
2019-05-25T15:24:39.450Z,7.37
2019-05-25T15:27:09.942Z,6.40
2019-05-25T15:29:40.461Z,6.10
2019-05-25T15:32:20.152Z,8.43
2019-05-25T15:34:41.344Z,6.23
2019-05-25T15:37:11.910Z,10.43
2019-05-25T15:39:41.664Z,13.40
2019-05-25T15:42:12.082Z,8.17
2019-05-25T15:44:42.404Z,5.70
2019-05-25T15:47:13.047Z,6.30
2019-05-25T15:49:43.426Z,7.03
2019-05-25T15:52:13.854Z,5.57
2019-05-25T15:54:43.498Z,6.87
2019-05-25T15:57:13.929Z,7.90
2019-05-25T15:59:44.295Z,6.57
2019-05-25T16:02:14.753Z,6.33
2019-05-25T16:04:44.361Z,9.07
2019-05-25T16:07:14.802Z,6.47
2019-05-25T16:09:45.244Z,5.97
2019-05-25T16:12:15.876Z,5.90
2019-05-25T16:14:46.389Z,6.27
2019-05-25T16:17:16.829Z,7.43
2019-05-25T16:19:47.249Z,6.73
2019-05-25T16:22:18.090Z,5.73
2019-05-25T16:24:48.431Z,6.43
2019-05-25T16:27:18.850Z,8.33
2019-05-25T16:29:49.368Z,6.10
2019-05-25T16:32:19.902Z,10.80
2019-05-25T16:34:51.735Z,6.83
2019-05-25T16:37:22.269Z,7.17
2019-05-25T16:39:52.851Z,6.97
2019-05-25T16:42:23.035Z,5.07
2019-05-25T16:44:53.562Z,5.93
2019-05-25T16:47:24.349Z,5.53
2019-05-25T16:49:55.123Z,7.43
2019-05-25T16:52:25.773Z,7.60
2019-05-25T16:54:56.510Z,5.00
2019-05-25T16:57:26.889Z,3.97
2019-05-25T16:59:57.658Z,5.63
2019-05-25T17:02:28.196Z,4.60
2019-05-25T17:04:58.790Z,4.77
2019-05-25T17:07:29.337Z,4.40
2019-05-25T17:09:59.832Z,7.07
2019-05-25T17:12:30.325Z,4.63
2019-05-25T17:15:00.706Z,5.27
2019-05-25T17:17:31.181Z,5.40
2019-05-25T17:20:01.507Z,4.83
2019-05-25T17:22:32.033Z,5.57
2019-05-25T17:25:02.481Z,5.70
2019-05-25T17:27:32.965Z,6.37
2019-05-25T17:30:03.667Z,5.77
2019-05-25T17:32:34.233Z,5.27
2019-05-25T17:35:04.686Z,6.10
2019-05-25T17:37:34.999Z,6.77
2019-05-25T17:40:05.915Z,5.63
2019-05-25T17:42:36.344Z,12.73
2019-05-25T17:45:07.134Z,7.63
2019-05-25T17:47:37.563Z,5.03
2019-05-25T17:50:08.024Z,9.80
2019-05-25T17:52:38.338Z,10.70
2019-05-25T17:55:08.964Z,10.53
2019-05-25T17:57:38.599Z,8.60
2019-05-25T18:00:09.146Z,7.57
2019-05-25T18:02:39.622Z,8.10
2019-05-25T18:05:10.325Z,9.13
2019-05-25T18:07:40.873Z,9.17
2019-05-25T18:10:11.317Z,7.67
2019-05-25T18:12:41.530Z,7.17
2019-05-25T18:15:12.002Z,6.60
2019-05-25T18:17:42.629Z,6.53
2019-05-25T18:20:13.444Z,6.07
2019-05-25T18:22:43.786Z,8.87
2019-05-25T18:25:14.418Z,6.23
2019-05-25T18:27:44.860Z,7.03
2019-05-25T18:30:15.437Z,5.43
2019-05-25T18:32:45.783Z,6.77
2019-05-25T18:35:16.302Z,5.20
2019-05-25T18:37:46.886Z,7.13
2019-05-25T18:40:17.386Z,5.20
2019-05-25T18:42:48.126Z,8.20
2019-05-25T18:45:18.312Z,10.97
2019-05-25T18:47:48.782Z,6.40
2019-05-25T18:50:19.490Z,7.13
2019-05-25T18:52:49.981Z,5.20
2019-05-25T18:55:20.634Z,4.77
2019-05-25T18:57:51.086Z,5.47
2019-05-25T19:00:21.840Z,4.40
2019-05-25T19:02:52.371Z,6.50
2019-05-25T19:05:22.994Z,4.90
2019-05-25T19:07:53.863Z,4.43
2019-05-25T19:10:24.466Z,6.73
2019-05-25T19:12:54.824Z,5.93
2019-05-25T19:15:24.584Z,5.73
2019-05-25T19:17:54.926Z,7.97
2019-05-25T19:20:25.390Z,10.27
2019-05-25T19:22:56.090Z,11.43
2019-05-25T19:25:26.590Z,11.43
2019-05-25T19:27:57.083Z,9.07
2019-05-25T19:30:27.562Z,12.60
2019-05-25T19:32:58.029Z,10.27
2019-05-25T19:35:28.511Z,8.17
2019-05-25T19:37:58.842Z,11.00
2019-05-25T19:40:29.256Z,16.03
2019-05-25T19:42:59.809Z,13.00
2019-05-25T19:45:32.684Z,13.20
2019-05-25T19:48:00.712Z,17.67
2019-05-25T19:50:31.248Z,15.70
2019-05-25T19:53:01.827Z,12.57
2019-05-25T19:55:32.250Z,9.67
2019-05-25T19:58:02.758Z,10.03
2019-05-25T20:00:33.114Z,11.37
2019-05-25T20:03:03.704Z,8.47
2019-05-25T20:05:34.138Z,8.23
2019-05-25T20:08:04.473Z,9.13
2019-05-25T20:10:34.847Z,8.77
2019-05-25T20:13:13.979Z,7.97
2019-05-25T20:15:44.518Z,7.07
2019-05-25T20:18:14.922Z,6.83
2019-05-25T20:20:45.344Z,8.40
2019-05-25T20:23:15.554Z,6.40
2019-05-25T20:25:46.173Z,6.57
2019-05-25T20:28:16.406Z,6.00
2019-05-25T20:30:46.733Z,10.57
2019-05-25T20:33:26.847Z,10.67
2019-05-25T20:35:47.826Z,10.07
2019-05-25T20:38:18.365Z,10.27
2019-05-25T20:40:48.711Z,9.33
2019-05-25T20:43:19.036Z,7.17
2019-05-25T20:45:49.426Z,8.10
2019-05-25T20:48:19.399Z,10.53
2019-05-25T20:50:49.715Z,8.53
2019-05-25T20:53:20.109Z,9.27
2019-05-25T20:55:50.554Z,13.90
2019-05-25T20:58:21.094Z,7.77
2019-05-25T21:00:51.509Z,9.23
2019-05-25T21:03:21.832Z,8.47
2019-05-25T21:05:52.401Z,6.97
2019-05-25T21:08:23.001Z,6.40
2019-05-25T21:10:53.371Z,7.40
2019-05-25T21:13:23.862Z,8.50
2019-05-25T21:15:54.436Z,10.33
2019-05-25T21:18:25.173Z,10.60
2019-05-25T21:20:55.923Z,11.50
2019-05-25T21:23:26.489Z,11.10
2019-05-25T21:25:56.931Z,12.80
2019-05-25T21:28:27.945Z,9.97
2019-05-25T21:30:58.036Z,10.17
2019-05-25T21:33:28.365Z,10.10
2019-05-25T21:36:07.759Z,10.27
2019-05-25T21:38:28.541Z,9.90
2019-05-25T21:40:59.019Z,10.63
2019-05-25T21:43:29.493Z,8.60
2019-05-25T21:46:00.023Z,8.30
2019-05-25T21:48:30.385Z,10.93
2019-05-25T21:51:00.840Z,12.87
2019-05-25T21:53:31.407Z,10.37
2019-05-25T21:56:01.835Z,10.43
2019-05-25T21:58:32.732Z,11.00
2019-05-25T22:01:03.422Z,9.83
2019-05-25T22:03:33.941Z,8.33
2019-05-25T22:06:04.459Z,8.00
2019-05-25T22:08:34.890Z,7.93
2019-05-25T22:11:05.286Z,8.50
2019-05-25T22:13:35.905Z,8.40
2019-05-25T22:16:06.241Z,8.17
2019-05-25T22:18:36.558Z,8.57
2019-05-25T22:21:07.440Z,8.53
2019-05-25T22:23:38.146Z,11.83
2019-05-25T22:26:08.511Z,6.43
2019-05-25T22:28:44.748Z,8.43
2019-05-25T22:31:09.630Z,11.70
2019-05-25T22:33:40.037Z,10.40
2019-05-25T22:36:10.325Z,7.80
2019-05-25T22:38:40.806Z,9.57
2019-05-25T22:41:11.221Z,9.50
2019-05-25T22:43:41.626Z,7.87
2019-05-25T22:46:11.473Z,9.10
2019-05-25T22:48:41.806Z,9.50
2019-05-25T22:51:12.260Z,8.30
2019-05-25T22:53:42.755Z,8.90
2019-05-25T22:56:13.134Z,8.63
2019-05-25T22:58:43.447Z,6.93
2019-05-25T23:01:13.933Z,6.63
2019-05-25T23:03:44.355Z,6.50
2019-05-25T23:06:14.750Z,7.87
2019-05-25T23:08:44.510Z,7.83
2019-05-25T23:11:14.783Z,7.63
2019-05-25T23:13:45.218Z,9.53
2019-05-25T23:16:15.528Z,7.10
2019-05-25T23:18:46.061Z,7.97
2019-05-25T23:21:16.374Z,7.23
2019-05-25T23:23:46.737Z,5.80
2019-05-25T23:26:17.260Z,8.63
2019-05-25T23:28:47.581Z,8.47
2019-05-25T23:31:17.920Z,8.57
2019-05-25T23:33:48.344Z,8.30
2019-05-25T23:36:18.841Z,7.90
2019-05-25T23:38:49.270Z,7.97
2019-05-25T23:41:19.646Z,7.77
2019-05-25T23:43:50.133Z,8.73
2019-05-25T23:46:20.548Z,9.17
2019-05-25T23:48:50.954Z,10.13
2019-05-25T23:51:21.492Z,8.57
2019-05-25T23:53:51.922Z,8.47
2019-05-25T23:56:22.485Z,8.17
2019-05-25T23:58:53.143Z,7.80
